createdAt,value
2023-12-23T00:00:11.134Z,9.91
2023-12-23T00:01:11.126Z,9.95
2023-12-23T00:02:11.125Z,9.92
2023-12-23T00:03:11.149Z,9.95
2023-12-23T00:04:11.094Z,10.00
2023-12-23T00:05:11.183Z,10.01
2023-12-23T00:06:11.300Z,9.95
2023-12-23T00:07:11.081Z,9.97
2023-12-23T00:08:11.163Z,10.00
2023-12-23T00:09:11.082Z,9.93
2023-12-23T00:10:11.165Z,9.97
2023-12-23T00:11:11.149Z,9.96
2023-12-23T00:12:11.119Z,9.98
2023-12-23T00:13:11.083Z,9.95
2023-12-23T00:14:11.117Z,9.97
2023-12-23T00:15:11.082Z,9.92
2023-12-23T00:16:11.119Z,9.90
2023-12-23T00:17:11.356Z,9.94
2023-12-23T00:18:11.307Z,9.96
2023-12-23T00:19:11.257Z,9.99
2023-12-23T00:20:11.218Z,9.99
2023-12-23T00:21:11.181Z,9.98
2023-12-23T00:22:11.082Z,9.97
2023-12-23T00:23:11.101Z,9.99
2023-12-23T00:24:11.104Z,9.98
2023-12-23T00:25:11.091Z,9.95
2023-12-23T00:26:11.243Z,9.90
2023-12-23T00:27:11.088Z,9.98
2023-12-23T00:28:11.086Z,9.97
2023-12-23T00:29:11.166Z,9.99
2023-12-23T00:30:11.112Z,9.99
2023-12-23T00:31:11.081Z,10.02
2023-12-23T00:32:11.102Z,9.98
2023-12-23T00:33:11.132Z,9.97
2023-12-23T00:34:11.078Z,9.97
2023-12-23T00:35:11.158Z,9.93
2023-12-23T00:36:11.068Z,9.96
2023-12-23T00:37:11.100Z,9.92
2023-12-23T00:38:11.100Z,9.98
2023-12-23T00:39:11.070Z,9.98
2023-12-23T00:40:11.070Z,10.00
2023-12-23T00:41:11.142Z,10.03
2023-12-23T00:42:11.070Z,10.06
2023-12-23T00:43:11.068Z,10.01
2023-12-23T00:44:11.133Z,10.01
2023-12-23T00:45:11.065Z,9.99
2023-12-23T00:46:11.079Z,9.96
2023-12-23T00:47:11.220Z,9.99
2023-12-23T00:48:11.084Z,9.94
2023-12-23T00:49:11.082Z,9.94
2023-12-23T00:50:11.124Z,9.97
2023-12-23T00:51:11.080Z,9.97
2023-12-23T00:52:11.071Z,9.95
2023-12-23T00:53:11.122Z,9.94
2023-12-23T00:54:11.065Z,9.94
2023-12-23T00:55:11.066Z,9.97
2023-12-23T00:56:11.140Z,9.96
2023-12-23T00:57:11.068Z,9.97
2023-12-23T00:58:11.068Z,9.98
2023-12-23T00:59:11.106Z,9.97
2023-12-23T01:00:11.068Z,9.99
2023-12-23T01:01:11.109Z,9.93
2023-12-23T01:02:11.152Z,9.92
2023-12-23T01:03:11.114Z,9.92
2023-12-23T01:04:11.086Z,9.95
2023-12-23T01:05:11.148Z,9.92
2023-12-23T01:06:11.100Z,9.89
2023-12-23T01:07:11.068Z,9.87
2023-12-23T01:08:11.114Z,9.82
2023-12-23T01:09:11.069Z,9.87
2023-12-23T01:10:11.095Z,9.89
2023-12-23T01:11:11.155Z,9.88
2023-12-23T01:12:11.069Z,9.84
2023-12-23T01:13:11.069Z,9.82
2023-12-23T01:14:11.155Z,9.79
2023-12-23T01:15:11.083Z,9.73
2023-12-23T01:16:11.067Z,9.72
2023-12-23T01:17:11.095Z,9.69
2023-12-23T01:18:11.167Z,9.65
2023-12-23T01:19:11.192Z,9.68
2023-12-23T01:20:11.105Z,9.65
2023-12-23T01:21:11.066Z,9.61
2023-12-23T01:22:11.071Z,9.62
2023-12-23T01:23:11.154Z,9.62
2023-12-23T01:24:11.071Z,9.57
2023-12-23T01:25:11.068Z,9.58
2023-12-23T01:26:11.108Z,9.58
2023-12-23T01:27:11.080Z,9.60
2023-12-23T01:28:11.075Z,9.60
2023-12-23T01:29:11.139Z,9.62
2023-12-23T01:30:11.105Z,9.62
2023-12-23T01:31:11.092Z,9.62
2023-12-23T01:32:11.155Z,9.51
2023-12-23T01:33:11.182Z,9.52
2023-12-23T01:34:11.076Z,9.54
2023-12-23T01:35:11.121Z,9.54
2023-12-23T01:36:11.071Z,9.56
2023-12-23T01:37:11.072Z,9.60
2023-12-23T01:38:11.066Z,9.63
2023-12-23T01:39:11.078Z,9.66
2023-12-23T01:40:11.093Z,9.67
2023-12-23T01:41:11.091Z,9.67
2023-12-23T01:42:11.073Z,9.67
2023-12-23T01:43:11.076Z,9.68
2023-12-23T01:44:11.102Z,9.70
2023-12-23T01:45:11.076Z,9.70
2023-12-23T01:46:11.078Z,9.68
2023-12-23T01:47:11.118Z,9.69
2023-12-23T01:48:12.162Z,9.71
2023-12-23T01:49:11.147Z,9.76
2023-12-23T01:50:11.103Z,9.80
2023-12-23T01:51:11.084Z,9.81
2023-12-23T01:52:11.075Z,9.84
2023-12-23T01:53:11.130Z,9.81
2023-12-23T01:54:11.084Z,9.85
2023-12-23T01:55:11.076Z,9.87
2023-12-23T01:56:11.122Z,9.87
2023-12-23T01:57:11.081Z,9.89
2023-12-23T01:58:11.073Z,9.90
2023-12-23T01:59:11.126Z,9.87
2023-12-23T02:00:11.087Z,9.88
2023-12-23T02:01:11.152Z,9.89
2023-12-23T02:02:11.142Z,9.92
2023-12-23T02:03:11.157Z,9.92
2023-12-23T02:04:11.071Z,9.94
2023-12-23T02:05:11.175Z,9.96
2023-12-23T02:06:11.171Z,9.97
2023-12-23T02:07:11.071Z,9.97
2023-12-23T02:08:11.088Z,9.99
2023-12-23T02:09:11.074Z,10.00
2023-12-23T02:10:11.081Z,9.97
2023-12-23T02:11:16.140Z,10.01
2023-12-23T02:12:18.077Z,10.01
2023-12-23T02:13:22.090Z,10.01
2023-12-23T02:14:18.132Z,10.04
2023-12-23T02:15:15.202Z,10.09
2023-12-23T02:16:11.081Z,10.10
2023-12-23T02:17:11.155Z,10.08
2023-12-23T02:18:11.367Z,10.07
2023-12-23T02:19:11.165Z,10.09
2023-12-23T02:20:11.137Z,10.14
2023-12-23T02:21:11.083Z,10.13
2023-12-23T02:22:11.097Z,10.16
2023-12-23T02:23:11.093Z,10.17
2023-12-23T02:24:11.093Z,10.17
2023-12-23T02:25:11.088Z,10.17
2023-12-23T02:26:11.135Z,10.18
2023-12-23T02:27:13.082Z,10.18
2023-12-23T02:28:11.076Z,10.17
2023-12-23T02:29:11.119Z,10.21
2023-12-23T02:30:11.115Z,10.24
2023-12-23T02:31:11.080Z,10.26
2023-12-23T02:32:11.145Z,10.26
2023-12-23T02:33:11.168Z,10.29
2023-12-23T02:34:11.180Z,10.29
2023-12-23T02:35:11.136Z,10.30
2023-12-23T02:36:11.083Z,10.32
2023-12-23T02:37:11.079Z,10.34
2023-12-23T02:38:11.134Z,10.36
2023-12-23T02:39:13.673Z,10.35
2023-12-23T02:40:11.080Z,10.33
2023-12-23T02:41:11.124Z,10.31
2023-12-23T02:42:11.078Z,10.35
2023-12-23T02:43:11.092Z,10.38
2023-12-23T02:44:11.141Z,10.38
2023-12-23T02:45:11.087Z,10.36
2023-12-23T02:46:11.111Z,10.37
2023-12-23T02:47:11.133Z,10.39
2023-12-23T02:48:11.164Z,10.39
2023-12-23T02:49:11.136Z,10.40
2023-12-23T02:50:11.105Z,10.41
2023-12-23T02:51:11.081Z,10.42
2023-12-23T02:52:11.080Z,10.41
2023-12-23T02:53:12.185Z,10.40
2023-12-23T02:54:11.084Z,10.42
2023-12-23T02:55:11.076Z,10.39
2023-12-23T02:56:11.079Z,10.41
2023-12-23T02:57:11.085Z,10.42
2023-12-23T02:58:11.077Z,10.44
2023-12-23T02:59:11.107Z,10.39
2023-12-23T03:00:11.085Z,10.37
2023-12-23T03:01:13.144Z,10.40
2023-12-23T03:02:11.123Z,10.44
2023-12-23T03:03:11.118Z,10.45
2023-12-23T03:04:11.072Z,10.49
2023-12-23T03:05:11.143Z,10.51
2023-12-23T03:06:14.179Z,10.51
2023-12-23T03:07:11.087Z,10.47
2023-12-23T03:08:11.118Z,10.44
2023-12-23T03:09:11.085Z,10.46
2023-12-23T03:10:11.087Z,10.46
2023-12-23T03:11:11.107Z,10.43
2023-12-23T03:12:11.091Z,10.44
2023-12-23T03:13:11.079Z,10.46
2023-12-23T03:14:11.104Z,10.47
2023-12-23T03:15:11.086Z,10.49
2023-12-23T03:16:15.077Z,10.48
2023-12-23T03:17:11.125Z,10.48
2023-12-23T03:18:11.133Z,10.47
2023-12-23T03:19:11.136Z,10.49
2023-12-23T03:20:11.164Z,10.49
2023-12-23T03:21:11.082Z,10.51
2023-12-23T03:22:11.080Z,10.49
2023-12-23T03:23:11.097Z,10.46
2023-12-23T03:24:11.081Z,10.42
2023-12-23T03:25:11.079Z,10.45
2023-12-23T03:26:11.120Z,10.46
2023-12-23T03:27:11.082Z,10.45
2023-12-23T03:28:11.124Z,10.42
2023-12-23T03:29:13.136Z,10.47
2023-12-23T03:30:11.136Z,10.47
2023-12-23T03:31:11.051Z,10.46
2023-12-23T03:32:11.141Z,10.41
2023-12-23T03:33:11.159Z,10.41
2023-12-23T03:34:11.131Z,10.43
2023-12-23T03:35:11.104Z,10.43
2023-12-23T03:36:11.062Z,10.42
2023-12-23T03:37:11.055Z,10.40
2023-12-23T03:38:11.077Z,10.40
2023-12-23T03:39:11.062Z,10.41
2023-12-23T03:40:12.073Z,10.40
2023-12-23T03:41:12.097Z,10.37
2023-12-23T03:42:11.062Z,10.39
2023-12-23T03:43:11.053Z,10.32
2023-12-23T03:44:11.091Z,10.35
2023-12-23T03:45:11.060Z,10.41
2023-12-23T03:46:11.050Z,10.45
2023-12-23T03:47:11.115Z,10.43
2023-12-23T03:48:11.119Z,10.38
2023-12-23T03:49:11.124Z,10.45
2023-12-23T03:50:11.258Z,10.48
2023-12-23T03:51:11.066Z,10.50
2023-12-23T03:52:11.060Z,10.51
2023-12-23T03:53:11.127Z,10.50
2023-12-23T03:54:11.056Z,10.55
2023-12-23T03:55:11.069Z,10.53
2023-12-23T03:56:11.093Z,10.46
2023-12-23T03:57:11.061Z,10.47
2023-12-23T03:58:11.136Z,10.43
2023-12-23T03:59:11.144Z,10.43
2023-12-23T04:00:11.070Z,10.38
2023-12-23T04:01:11.085Z,10.40
2023-12-23T04:02:11.141Z,10.37
2023-12-23T04:03:11.065Z,10.37
2023-12-23T04:04:11.066Z,10.36
2023-12-23T04:05:11.129Z,10.38
2023-12-23T04:06:11.108Z,10.39
2023-12-23T04:07:11.072Z,10.41
2023-12-23T04:08:11.147Z,10.38
2023-12-23T04:09:11.074Z,10.39
2023-12-23T04:10:11.080Z,10.37
2023-12-23T04:11:11.109Z,10.34
2023-12-23T04:12:11.069Z,10.37
2023-12-23T04:13:11.065Z,10.41
2023-12-23T04:14:11.122Z,10.38
2023-12-23T04:15:11.082Z,10.39
2023-12-23T04:16:13.601Z,10.38
2023-12-23T04:17:11.102Z,10.37
2023-12-23T04:18:11.135Z,10.32
2023-12-23T04:19:11.162Z,10.30
2023-12-23T04:20:11.107Z,10.30
2023-12-23T04:21:14.068Z,10.25
2023-12-23T04:22:11.081Z,10.23
2023-12-23T04:23:11.109Z,10.22
2023-12-23T04:24:11.085Z,10.24
2023-12-23T04:25:11.082Z,10.24
2023-12-23T04:26:11.124Z,10.26
2023-12-23T04:27:11.073Z,10.28
2023-12-23T04:28:11.078Z,10.27
2023-12-23T04:29:11.100Z,10.22
2023-12-23T04:30:11.102Z,10.23
2023-12-23T04:31:11.244Z,10.26
2023-12-23T04:32:11.101Z,10.25
2023-12-23T04:33:11.190Z,10.26
2023-12-23T04:34:11.176Z,10.24
2023-12-23T04:35:11.126Z,10.27
2023-12-23T04:36:11.070Z,10.27
2023-12-23T04:37:11.071Z,10.24
2023-12-23T04:38:11.119Z,10.24
2023-12-23T04:39:11.067Z,10.19
2023-12-23T04:40:11.072Z,10.20
2023-12-23T04:41:11.110Z,10.12
2023-12-23T04:42:11.069Z,10.17
2023-12-23T04:43:11.074Z,10.19
2023-12-23T04:44:11.089Z,10.20
2023-12-23T04:45:11.110Z,10.17
2023-12-23T04:46:11.075Z,10.12
2023-12-23T04:47:11.116Z,10.13
2023-12-23T04:48:11.230Z,10.11
2023-12-23T04:49:11.080Z,10.13
2023-12-23T04:50:11.124Z,10.09
2023-12-23T04:51:11.074Z,10.07
2023-12-23T04:52:11.102Z,10.03
2023-12-23T04:53:11.125Z,10.00
2023-12-23T04:54:11.066Z,9.97
2023-12-23T04:55:11.158Z,9.95
2023-12-23T04:56:11.089Z,9.91
2023-12-23T04:57:11.075Z,9.79
2023-12-23T04:58:11.080Z,9.76
2023-12-23T04:59:11.073Z,9.77
2023-12-23T05:00:11.074Z,9.80
2023-12-23T05:01:11.087Z,9.79
2023-12-23T05:02:11.106Z,9.77
2023-12-23T05:03:11.110Z,9.76
2023-12-23T05:04:11.070Z,9.71
2023-12-23T05:05:11.161Z,9.71
2023-12-23T05:06:11.118Z,9.71
2023-12-23T05:07:11.076Z,9.73
2023-12-23T05:08:11.106Z,9.78
2023-12-23T05:09:11.093Z,9.79
2023-12-23T05:10:11.068Z,9.81
2023-12-23T05:11:11.140Z,9.82
2023-12-23T05:12:11.067Z,9.81
2023-12-23T05:13:11.070Z,9.82
2023-12-23T05:14:11.146Z,9.84
2023-12-23T05:15:11.072Z,9.84
2023-12-23T05:16:11.080Z,9.86
2023-12-23T05:17:11.101Z,9.89
2023-12-23T05:18:11.141Z,9.86
2023-12-23T05:19:11.222Z,9.86
2023-12-23T05:20:11.153Z,9.88
2023-12-23T05:21:11.072Z,9.88
2023-12-23T05:22:11.074Z,9.86
2023-12-23T05:23:11.122Z,9.87
2023-12-23T05:24:11.076Z,9.88
2023-12-23T05:25:11.069Z,9.90
2023-12-23T05:26:11.098Z,9.88
2023-12-23T05:27:11.069Z,9.87
2023-12-23T05:28:11.072Z,9.85
2023-12-23T05:29:11.139Z,9.84
2023-12-23T05:30:11.153Z,9.86
2023-12-23T05:31:11.069Z,9.86
2023-12-23T05:32:11.114Z,9.86
2023-12-23T05:33:11.122Z,9.87
2023-12-23T05:34:11.126Z,9.86
2023-12-23T05:35:11.112Z,9.89
2023-12-23T05:36:11.071Z,9.86
2023-12-23T05:37:11.073Z,9.87
2023-12-23T05:38:11.124Z,9.89
2023-12-23T05:39:11.076Z,9.89
2023-12-23T05:40:11.073Z,9.88
2023-12-23T05:41:11.116Z,9.90
2023-12-23T05:42:11.079Z,9.91
2023-12-23T05:43:11.078Z,9.91
2023-12-23T05:44:11.112Z,9.93
2023-12-23T05:45:11.138Z,9.96
2023-12-23T05:46:11.214Z,9.96
2023-12-23T05:47:11.110Z,9.94
2023-12-23T05:48:11.232Z,9.91
2023-12-23T05:49:11.144Z,9.92
2023-12-23T05:50:11.127Z,9.93
2023-12-23T05:51:11.091Z,9.92
2023-12-23T05:52:11.082Z,9.91
2023-12-23T05:53:11.104Z,9.90
2023-12-23T05:54:11.091Z,9.91
2023-12-23T05:55:11.127Z,9.85
2023-12-23T05:56:11.166Z,9.79
2023-12-23T05:57:11.079Z,9.79
2023-12-23T05:58:11.089Z,9.80
2023-12-23T05:59:11.105Z,9.76
2023-12-23T06:00:13.307Z,9.75
2023-12-23T06:01:11.115Z,9.76
2023-12-23T06:02:11.146Z,9.75
2023-12-23T06:03:11.121Z,9.73
2023-12-23T06:04:11.089Z,9.69
2023-12-23T06:05:11.105Z,9.71
2023-12-23T06:06:11.088Z,9.75
2023-12-23T06:07:11.083Z,9.75
2023-12-23T06:08:11.116Z,9.76
2023-12-23T06:09:11.076Z,9.76
2023-12-23T06:10:11.078Z,9.77
2023-12-23T06:11:12.134Z,9.78
2023-12-23T06:12:11.076Z,9.83
2023-12-23T06:13:11.083Z,9.83
2023-12-23T06:14:11.152Z,9.86
2023-12-23T06:15:11.101Z,9.86
2023-12-23T06:16:11.083Z,9.85
2023-12-23T06:17:11.155Z,9.83
2023-12-23T06:18:11.155Z,9.85
2023-12-23T06:19:11.214Z,9.84
2023-12-23T06:20:11.200Z,9.87
2023-12-23T06:21:11.076Z,9.88
2023-12-23T06:22:11.078Z,9.92
2023-12-23T06:23:11.120Z,9.95
2023-12-23T06:24:11.075Z,9.99
2023-12-23T06:25:11.085Z,9.94
2023-12-23T06:26:12.146Z,9.97
2023-12-23T06:27:11.077Z,9.99
2023-12-23T06:28:11.084Z,10.02
2023-12-23T06:29:11.169Z,10.03
2023-12-23T06:30:11.109Z,10.06
2023-12-23T06:31:11.061Z,10.10
2023-12-23T06:32:11.108Z,10.10
2023-12-23T06:33:11.123Z,10.10
2023-12-23T06:34:11.162Z,10.09
2023-12-23T06:35:11.109Z,10.07
2023-12-23T06:36:11.062Z,10.07
2023-12-23T06:37:11.062Z,10.10
2023-12-23T06:38:11.122Z,10.11
2023-12-23T06:39:11.083Z,10.11
2023-12-23T06:40:11.075Z,10.11
2023-12-23T06:41:11.108Z,10.15
2023-12-23T06:42:11.066Z,10.16
2023-12-23T06:43:43.787Z,10.17
2023-12-23T06:44:13.148Z,10.21
2023-12-23T06:45:11.075Z,10.20
2023-12-23T06:46:12.071Z,10.20
2023-12-23T06:47:11.110Z,10.19
2023-12-23T06:48:11.182Z,10.20
2023-12-23T06:49:11.163Z,10.18
2023-12-23T06:50:11.309Z,10.22
2023-12-23T06:51:11.070Z,10.21
2023-12-23T06:52:11.070Z,10.21
2023-12-23T06:53:11.087Z,10.20
2023-12-23T06:54:11.076Z,10.16
2023-12-23T06:55:11.067Z,10.19
2023-12-23T06:56:11.104Z,10.15
2023-12-23T06:57:11.077Z,10.17
2023-12-23T06:58:11.069Z,10.16
2023-12-23T06:59:14.265Z,10.17
2023-12-23T07:00:11.077Z,10.14
2023-12-23T07:01:11.120Z,10.16
2023-12-23T07:02:11.103Z,10.17
2023-12-23T07:03:11.084Z,10.12
2023-12-23T07:04:11.100Z,10.14
2023-12-23T07:05:11.193Z,10.17
2023-12-23T07:06:13.228Z,10.19
2023-12-23T07:07:11.068Z,10.16
2023-12-23T07:08:11.115Z,10.15
2023-12-23T07:09:11.073Z,10.17
2023-12-23T07:10:11.071Z,10.17
2023-12-23T07:11:12.275Z,10.19
2023-12-23T07:12:11.105Z,10.21
2023-12-23T07:13:11.075Z,10.15
2023-12-23T07:14:11.099Z,10.15
2023-12-23T07:15:11.069Z,10.15
2023-12-23T07:16:11.072Z,10.15
2023-12-23T07:17:11.139Z,10.17
2023-12-23T07:18:11.112Z,10.13
2023-12-23T07:19:11.071Z,10.13
2023-12-23T07:20:11.221Z,10.10
2023-12-23T07:21:11.085Z,10.10
2023-12-23T07:22:11.080Z,10.09
2023-12-23T07:23:11.217Z,10.05
2023-12-23T07:24:11.066Z,10.03
2023-12-23T07:25:11.069Z,9.99
2023-12-23T07:26:12.101Z,9.97
2023-12-23T07:27:11.068Z,9.97
2023-12-23T07:28:11.063Z,9.99
2023-12-23T07:29:11.103Z,9.95
2023-12-23T07:30:11.170Z,9.92
2023-12-23T07:31:11.068Z,9.94
2023-12-23T07:32:11.108Z,9.94
2023-12-23T07:33:11.168Z,9.96
2023-12-23T07:34:11.142Z,9.90
2023-12-23T07:35:11.126Z,9.91
2023-12-23T07:36:11.069Z,9.92
2023-12-23T07:37:12.062Z,9.94
2023-12-23T07:38:11.112Z,9.95
2023-12-23T07:39:11.071Z,9.96
2023-12-23T07:40:11.074Z,9.93
2023-12-23T07:41:11.104Z,9.93
2023-12-23T07:42:11.074Z,9.90
2023-12-23T07:43:11.069Z,9.92
2023-12-23T07:44:11.145Z,9.96
2023-12-23T07:45:11.074Z,9.96
2023-12-23T07:46:11.074Z,9.98
2023-12-23T07:47:11.105Z,9.99
2023-12-23T07:48:11.169Z,9.99
2023-12-23T07:49:11.133Z,10.00
2023-12-23T07:50:11.135Z,9.97
2023-12-23T07:51:11.073Z,10.00
2023-12-23T07:52:11.091Z,10.00
2023-12-23T07:53:11.197Z,10.01
2023-12-23T07:54:11.115Z,10.02
2023-12-23T07:55:11.080Z,10.02
2023-12-23T07:56:11.104Z,10.01
2023-12-23T07:57:11.081Z,10.02
2023-12-23T07:58:11.082Z,10.00
2023-12-23T07:59:11.121Z,10.05
2023-12-23T08:00:11.072Z,10.07
2023-12-23T08:01:11.108Z,10.05
2023-12-23T08:02:11.125Z,10.08
2023-12-23T08:03:11.088Z,10.10
2023-12-23T08:04:11.131Z,10.06
2023-12-23T08:05:12.832Z,10.07
2023-12-23T08:06:11.184Z,10.09
2023-12-23T08:07:11.077Z,10.08
2023-12-23T08:08:11.226Z,10.12
2023-12-23T08:09:11.082Z,10.09
2023-12-23T08:10:11.084Z,10.09
2023-12-23T08:11:11.120Z,10.08
2023-12-23T08:12:11.078Z,10.10
2023-12-23T08:13:11.082Z,10.08
2023-12-23T08:14:11.133Z,10.06
2023-12-23T08:15:11.076Z,10.04
2023-12-23T08:16:11.081Z,10.06
2023-12-23T08:17:11.112Z,10.07
2023-12-23T08:18:11.240Z,10.06
2023-12-23T08:19:11.121Z,10.03
2023-12-23T08:20:11.155Z,10.05
2023-12-23T08:21:11.081Z,10.05
2023-12-23T08:22:11.087Z,10.02
2023-12-23T08:23:11.106Z,10.05
2023-12-23T08:24:11.076Z,10.06
2023-12-23T08:25:11.088Z,10.06
2023-12-23T08:26:11.125Z,10.09
2023-12-23T08:27:11.078Z,10.08
2023-12-23T08:28:11.087Z,10.11
2023-12-23T08:29:11.181Z,10.10
2023-12-23T08:30:11.150Z,10.07
2023-12-23T08:31:11.080Z,10.07
2023-12-23T08:32:11.104Z,10.10
2023-12-23T08:33:11.166Z,10.10
2023-12-23T08:34:11.103Z,10.10
2023-12-23T08:35:11.165Z,10.10
2023-12-23T08:36:11.081Z,10.06
2023-12-23T08:37:11.081Z,10.05
2023-12-23T08:38:11.121Z,10.03
2023-12-23T08:39:11.085Z,10.05
2023-12-23T08:40:11.092Z,10.04
2023-12-23T08:41:11.079Z,10.04
2023-12-23T08:42:11.094Z,10.07
2023-12-23T08:43:11.073Z,10.04
2023-12-23T08:44:11.190Z,9.99
2023-12-23T08:45:11.093Z,9.96
2023-12-23T08:46:11.076Z,9.96
2023-12-23T08:47:11.116Z,9.97
2023-12-23T08:48:11.122Z,9.99
2023-12-23T08:49:11.125Z,9.99
2023-12-23T08:50:11.142Z,9.96
2023-12-23T08:51:11.096Z,9.94
2023-12-23T08:52:11.074Z,9.98
2023-12-23T08:53:11.128Z,9.98
2023-12-23T08:54:11.084Z,9.99
2023-12-23T08:55:11.075Z,9.99
2023-12-23T08:56:11.119Z,9.96
2023-12-23T08:57:11.081Z,9.94
2023-12-23T08:58:11.078Z,9.92
2023-12-23T08:59:11.138Z,9.96
2023-12-23T09:00:11.100Z,9.98
2023-12-23T09:01:11.130Z,9.98
2023-12-23T09:02:11.156Z,9.99
2023-12-23T09:03:11.132Z,9.97
2023-12-23T09:04:11.083Z,9.96
2023-12-23T09:05:11.179Z,9.97
2023-12-23T09:06:11.135Z,9.96
2023-12-23T09:07:11.088Z,9.96
2023-12-23T09:08:11.144Z,9.99
2023-12-23T09:09:11.223Z,9.97
2023-12-23T09:10:11.085Z,10.00
2023-12-23T09:11:11.119Z,10.01
2023-12-23T09:12:11.075Z,10.01
2023-12-23T09:13:11.070Z,10.01
2023-12-23T09:14:11.161Z,10.02
2023-12-23T09:15:11.100Z,10.05
2023-12-23T09:16:11.093Z,10.08
2023-12-23T09:17:11.155Z,10.09
2023-12-23T09:18:11.168Z,10.08
2023-12-23T09:19:11.163Z,10.10
2023-12-23T09:20:11.158Z,10.08
2023-12-23T09:21:11.099Z,10.10
2023-12-23T09:22:11.079Z,10.09
2023-12-23T09:23:11.112Z,10.12
2023-12-23T09:24:11.087Z,10.12
2023-12-23T09:25:11.091Z,10.09
2023-12-23T09:26:11.136Z,10.09
2023-12-23T09:27:11.083Z,10.11
2023-12-23T09:28:11.086Z,10.12
2023-12-23T09:29:11.136Z,10.12
2023-12-23T09:30:11.110Z,10.13
2023-12-23T09:31:11.094Z,10.16
2023-12-23T09:32:11.137Z,10.19
2023-12-23T09:33:11.134Z,10.19
2023-12-23T09:34:11.127Z,10.16
2023-12-23T09:35:11.144Z,10.19
2023-12-23T09:36:11.064Z,10.22
2023-12-23T09:37:11.080Z,10.23
2023-12-23T09:38:11.089Z,10.24
2023-12-23T09:39:11.067Z,10.26
2023-12-23T09:40:11.070Z,10.30
2023-12-23T09:41:11.128Z,10.32
2023-12-23T09:42:11.097Z,10.34
2023-12-23T09:43:11.096Z,10.34
2023-12-23T09:44:11.193Z,10.37
2023-12-23T09:45:13.067Z,10.34
2023-12-23T09:46:11.083Z,10.35
2023-12-23T09:47:11.132Z,10.36
2023-12-23T09:48:11.270Z,10.37
2023-12-23T09:49:11.158Z,10.37
2023-12-23T09:50:11.106Z,10.41
2023-12-23T09:51:11.068Z,10.39
2023-12-23T09:52:11.083Z,10.39
2023-12-23T09:53:14.152Z,10.41
2023-12-23T09:54:14.110Z,10.46
2023-12-23T09:55:12.071Z,10.38
2023-12-23T09:56:11.118Z,10.38
2023-12-23T09:57:11.068Z,10.40
2023-12-23T09:58:11.072Z,10.41
2023-12-23T09:59:11.128Z,10.43
2023-12-23T10:00:11.085Z,10.44
2023-12-23T10:01:11.132Z,10.43
2023-12-23T10:02:11.097Z,10.45
2023-12-23T10:03:11.109Z,10.48
2023-12-23T10:04:11.067Z,10.48
2023-12-23T10:05:11.258Z,10.47
2023-12-23T10:06:13.140Z,10.52
2023-12-23T10:07:11.063Z,10.56
2023-12-23T10:08:11.159Z,10.59
2023-12-23T10:09:11.087Z,10.62
2023-12-23T10:10:11.068Z,10.64
2023-12-23T10:11:11.090Z,10.61
2023-12-23T10:12:11.081Z,10.60
2023-12-23T10:13:11.087Z,10.63
2023-12-23T10:14:11.104Z,10.60
2023-12-23T10:15:11.080Z,10.57
2023-12-23T10:16:11.069Z,10.63
2023-12-23T10:17:11.097Z,10.65
2023-12-23T10:18:13.172Z,10.65
2023-12-23T10:19:11.123Z,10.65
2023-12-23T10:20:11.108Z,10.67
2023-12-23T10:21:11.073Z,10.70
2023-12-23T10:22:11.088Z,10.72
2023-12-23T10:23:11.111Z,10.75
2023-12-23T10:24:11.078Z,10.77
2023-12-23T10:25:11.080Z,10.82
2023-12-23T10:26:11.097Z,10.87
2023-12-23T10:27:11.069Z,10.92
2023-12-23T10:28:11.075Z,10.96
2023-12-23T10:29:11.134Z,11.03
2023-12-23T10:30:13.140Z,11.05
2023-12-23T10:31:12.076Z,11.09
2023-12-23T10:32:12.132Z,11.05
2023-12-23T10:33:12.137Z,11.02
2023-12-23T10:34:12.205Z,11.02
2023-12-23T10:35:15.014Z,11.02
2023-12-23T10:36:12.077Z,11.02
2023-12-23T10:37:11.066Z,10.98
2023-12-23T10:38:11.102Z,11.02
2023-12-23T10:39:21.080Z,11.05
2023-12-23T10:40:18.068Z,11.05
2023-12-23T10:41:23.162Z,11.04
2023-12-23T10:42:13.083Z,11.04
2023-12-23T10:43:11.073Z,11.01
2023-12-23T10:44:11.140Z,11.05
2023-12-23T10:45:11.069Z,11.07
2023-12-23T10:46:11.097Z,11.06
2023-12-23T10:47:11.204Z,11.06
2023-12-23T10:48:11.251Z,11.02
2023-12-23T10:49:11.190Z,11.05
2023-12-23T10:50:11.141Z,11.04
2023-12-23T10:51:11.067Z,11.02
2023-12-23T10:52:11.071Z,11.07
2023-12-23T10:53:11.100Z,11.11
2023-12-23T10:54:11.071Z,11.11
2023-12-23T10:55:11.068Z,11.14
2023-12-23T10:56:13.016Z,11.16
2023-12-23T10:57:11.261Z,11.19
2023-12-23T10:58:11.071Z,11.18
2023-12-23T10:59:11.111Z,11.17
2023-12-23T11:00:11.180Z,11.21
2023-12-23T11:01:12.124Z,11.23
2023-12-23T11:02:15.124Z,11.25
2023-12-23T11:03:11.092Z,11.21
2023-12-23T11:04:11.068Z,11.19
2023-12-23T11:05:11.147Z,11.24
2023-12-23T11:06:11.154Z,11.29
2023-12-23T11:07:11.073Z,11.32
2023-12-23T11:08:17.472Z,11.30
2023-12-23T11:09:11.073Z,11.35
2023-12-23T11:10:11.075Z,11.40
2023-12-23T11:11:11.107Z,11.38
2023-12-23T11:12:11.094Z,11.41
2023-12-23T11:13:11.082Z,11.41
2023-12-23T11:14:12.120Z,11.40
2023-12-23T11:15:11.073Z,11.47
2023-12-23T11:16:15.078Z,11.51
2023-12-23T11:17:19.115Z,11.52
2023-12-23T11:18:11.429Z,11.54
2023-12-23T11:19:11.105Z,11.59
2023-12-23T11:20:15.114Z,11.65
2023-12-23T11:21:16.073Z,11.71
2023-12-23T11:22:19.083Z,11.77
2023-12-23T11:23:21.142Z,11.82
2023-12-23T11:24:19.073Z,11.81
2023-12-23T11:25:19.069Z,11.88
2023-12-23T11:26:19.127Z,11.78
2023-12-23T11:27:15.089Z,11.79
2023-12-23T11:28:11.122Z,11.75
2023-12-23T11:29:12.167Z,11.71
2023-12-23T11:30:11.183Z,11.71
2023-12-23T11:31:11.101Z,11.73
2023-12-23T11:32:15.388Z,11.75
2023-12-23T11:33:11.126Z,11.78
2023-12-23T11:34:15.219Z,11.79
2023-12-23T11:35:11.115Z,11.77
2023-12-23T11:36:11.130Z,11.75
2023-12-23T11:37:11.083Z,11.77
2023-12-23T11:38:11.117Z,11.80
2023-12-23T11:39:11.104Z,11.79
2023-12-23T11:40:12.076Z,11.80
2023-12-23T11:41:11.120Z,11.76
2023-12-23T11:42:11.088Z,11.75
2023-12-23T11:43:11.114Z,11.74
2023-12-23T11:44:11.132Z,11.66
2023-12-23T11:45:11.085Z,11.70
2023-12-23T11:46:11.074Z,11.66
2023-12-23T11:47:11.090Z,11.68
2023-12-23T11:48:11.189Z,11.71
2023-12-23T11:49:11.222Z,11.73
2023-12-23T11:50:11.136Z,11.73
2023-12-23T11:51:11.119Z,11.74
2023-12-23T11:52:11.079Z,11.72
2023-12-23T11:53:11.298Z,11.72
2023-12-23T11:54:11.132Z,11.68
2023-12-23T11:55:11.080Z,11.71
2023-12-23T11:56:11.290Z,11.73
2023-12-23T11:57:11.085Z,11.73
2023-12-23T11:58:11.094Z,11.66
2023-12-23T11:59:11.116Z,11.71
2023-12-23T12:00:11.085Z,11.69
2023-12-23T12:01:11.139Z,11.69
2023-12-23T12:02:11.128Z,11.67
2023-12-23T12:03:11.085Z,11.69
2023-12-23T12:04:11.104Z,11.68
2023-12-23T12:05:11.166Z,11.62
2023-12-23T12:06:11.333Z,11.65
2023-12-23T12:07:11.077Z,11.68
2023-12-23T12:08:11.095Z,11.72
2023-12-23T12:09:11.079Z,11.74
2023-12-23T12:10:11.085Z,11.76
2023-12-23T12:11:11.108Z,11.80
2023-12-23T12:12:11.080Z,11.82
2023-12-23T12:13:11.078Z,11.82
2023-12-23T12:14:11.109Z,11.82
2023-12-23T12:15:11.104Z,11.81
2023-12-23T12:16:11.078Z,11.85
2023-12-23T12:17:11.117Z,11.86
2023-12-23T12:18:11.203Z,11.86
2023-12-23T12:19:11.208Z,11.77
2023-12-23T12:20:11.102Z,11.76
2023-12-23T12:21:11.081Z,11.74
2023-12-23T12:22:11.090Z,11.73
2023-12-23T12:23:11.119Z,11.76
2023-12-23T12:24:11.085Z,11.82
2023-12-23T12:25:11.095Z,11.84
2023-12-23T12:26:11.119Z,11.80
2023-12-23T12:27:11.082Z,11.79
2023-12-23T12:28:11.084Z,11.80
2023-12-23T12:29:11.102Z,11.82
2023-12-23T12:30:11.115Z,11.88
2023-12-23T12:31:11.068Z,11.93
2023-12-23T12:32:13.080Z,11.92
2023-12-23T12:33:12.143Z,11.95
2023-12-23T12:34:12.128Z,11.88
2023-12-23T12:35:12.124Z,11.88
2023-12-23T12:36:14.063Z,11.87
2023-12-23T12:37:11.069Z,11.87
2023-12-23T12:38:17.372Z,11.83
2023-12-23T12:39:13.108Z,11.85
2023-12-23T12:40:13.067Z,11.80
2023-12-23T12:41:11.104Z,11.85
2023-12-23T12:42:11.075Z,11.88
2023-12-23T12:43:12.068Z,11.93
2023-12-23T12:44:11.084Z,11.90
2023-12-23T12:45:11.077Z,11.90
2023-12-23T12:46:11.072Z,11.89
2023-12-23T12:47:11.102Z,11.90
2023-12-23T12:48:15.129Z,11.97
2023-12-23T12:49:11.156Z,12.00
2023-12-23T12:50:11.136Z,11.95
2023-12-23T12:51:11.091Z,11.92
2023-12-23T12:52:11.086Z,11.97
2023-12-23T12:53:11.128Z,11.96
2023-12-23T12:54:11.080Z,11.96
2023-12-23T12:55:11.074Z,11.88
2023-12-23T12:56:11.162Z,11.87
2023-12-23T12:57:11.071Z,11.88
2023-12-23T12:58:11.062Z,11.83
2023-12-23T12:59:11.097Z,11.84
2023-12-23T13:00:12.072Z,11.80
2023-12-23T13:01:11.122Z,11.86